Nebo, Kentucky
Current Conditions -  °F | °C
As of 10:55 AM on Thursday 23 Oct 2014 (Local Time) from K2I0 Reporting Station
Clear Clear  
Wind Chill: 56°   Ceiling: Unl
Heat Index: 56°   Visibility: 10mi
Dew Point: 45°   Wind: 6mph
Humidity: 66%   Direction: 160°SSE
Pressure: 30.26"   Gusts: NA
Location:  37.38°N, 87.64°W
Report Text: K2I0 231555Z AUTO 16005KT 10SM CLR 14/07 A3026 RMK AO2 T01350073
Loading
Personal Weather Stations






























Interactive Weather Map
Tropical Storm Tracking
New forecast layout! Learn more

10-Day Weather Forecast

Advertisements
Track Severe Weather on mobile